createdAt,value
2022-12-26T00:01:08.033Z,7.10
2022-12-26T00:03:35.851Z,7.13
2022-12-26T00:06:03.824Z,7.13
2022-12-26T00:08:32.843Z,7.15
2022-12-26T00:11:00.486Z,7.12
2022-12-26T00:13:38.208Z,7.14
2022-12-26T00:16:09.738Z,7.12
2022-12-26T00:18:37.684Z,7.05
2022-12-26T00:21:05.767Z,6.97
2022-12-26T00:23:35.433Z,6.93
2022-12-26T00:26:04.935Z,6.90
2022-12-26T00:28:32.797Z,6.87
2022-12-26T00:31:04.007Z,6.83
2022-12-26T00:33:31.688Z,6.78
2022-12-26T00:36:02.247Z,6.78
2022-12-26T00:38:29.939Z,6.71
2022-12-26T00:40:58.912Z,6.61
2022-12-26T00:43:26.635Z,6.54
2022-12-26T00:45:54.657Z,6.42
2022-12-26T00:48:22.444Z,6.32
2022-12-26T00:50:50.085Z,6.22
2022-12-26T00:53:18.135Z,6.08
2022-12-26T00:55:45.881Z,5.89
2022-12-26T00:58:14.908Z,5.87
2022-12-26T01:00:42.725Z,5.81
2022-12-26T01:03:11.785Z,5.75
2022-12-26T01:05:42.361Z,5.80
2022-12-26T01:08:20.509Z,5.76
2022-12-26T01:10:51.621Z,5.57
2022-12-26T01:13:20.655Z,5.31
2022-12-26T01:15:49.958Z,5.09
2022-12-26T01:18:17.645Z,5.01
2022-12-26T01:20:45.296Z,4.91
2022-12-26T01:23:12.959Z,4.72
2022-12-26T01:26:15.314Z,4.61
2022-12-26T01:28:29.858Z,4.50
2022-12-26T01:31:02.298Z,4.53
2022-12-26T01:33:29.973Z,4.52
2022-12-26T01:35:57.913Z,4.41
2022-12-26T01:38:25.932Z,4.30
2022-12-26T01:41:13.564Z,4.13
2022-12-26T01:43:55.679Z,3.88
2022-12-26T01:46:30.105Z,3.74
2022-12-26T01:49:01.899Z,3.67
2022-12-26T01:51:32.754Z,3.56
2022-12-26T01:54:39.529Z,3.48
2022-12-26T01:56:51.988Z,3.33
2022-12-26T01:59:24.413Z,3.22
2022-12-26T02:01:54.835Z,3.17
2022-12-26T02:04:45.317Z,3.04
2022-12-26T02:07:13.202Z,3.06
2022-12-26T02:09:41.259Z,3.03
2022-12-26T02:12:35.986Z,3.02
2022-12-26T02:15:09.604Z,3.01
2022-12-26T02:17:38.366Z,2.98
2022-12-26T02:20:16.537Z,2.92
2022-12-26T02:23:28.857Z,2.88
2022-12-26T02:26:33.974Z,2.84
2022-12-26T02:29:35.898Z,2.77
2022-12-26T02:32:13.094Z,2.79
2022-12-26T02:34:51.999Z,2.94
2022-12-26T02:37:30.029Z,3.14
2022-12-26T02:40:13.431Z,3.36
2022-12-26T02:42:52.886Z,3.64
2022-12-26T02:45:47.189Z,4.08
2022-12-26T02:48:24.387Z,4.51
2022-12-26T02:51:20.530Z,4.94
2022-12-26T02:54:17.315Z,5.32
2022-12-26T02:57:12.306Z,5.73
2022-12-26T03:00:07.729Z,5.94
2022-12-26T03:02:58.587Z,6.16
2022-12-26T03:06:03.963Z,6.36
2022-12-26T03:08:54.070Z,6.47
2022-12-26T03:11:41.565Z,6.58
2022-12-26T03:14:15.991Z,6.69
2022-12-26T03:17:05.042Z,6.74
2022-12-26T03:19:34.236Z,6.82
2022-12-26T03:22:25.714Z,6.84
2022-12-26T03:25:08.980Z,6.90
2022-12-26T03:27:36.731Z,6.94
2022-12-26T03:30:37.848Z,6.96
2022-12-26T03:33:05.881Z,7.02
2022-12-26T03:35:34.157Z,7.08
2022-12-26T03:38:08.576Z,7.07
2022-12-26T03:41:10.902Z,7.07
2022-12-26T03:44:06.835Z,7.01
2022-12-26T03:47:01.377Z,6.99
2022-12-26T03:49:49.326Z,6.94
2022-12-26T03:52:42.915Z,6.90
2022-12-26T03:55:36.747Z,6.81
2022-12-26T03:58:28.610Z,6.82
2022-12-26T04:01:16.132Z,6.76
2022-12-26T04:04:00.073Z,6.72
2022-12-26T04:06:48.871Z,6.70
2022-12-26T04:09:41.432Z,6.67
2022-12-26T04:12:34.460Z,6.68
2022-12-26T04:15:33.246Z,6.75
2022-12-26T04:18:21.740Z,6.88
2022-12-26T04:20:54.612Z,6.87
2022-12-26T04:23:46.161Z,6.89
2022-12-26T04:26:36.499Z,6.92
2022-12-26T04:29:23.468Z,6.89
2022-12-26T04:32:17.380Z,6.93
2022-12-26T04:35:10.309Z,6.97
2022-12-26T04:38:01.300Z,6.96
2022-12-26T04:40:52.755Z,6.89
2022-12-26T04:43:49.287Z,6.85
2022-12-26T04:46:22.694Z,6.78
2022-12-26T04:49:10.889Z,6.74
2022-12-26T04:51:38.701Z,6.64
2022-12-26T04:54:07.495Z,6.57
2022-12-26T04:56:35.476Z,6.48
2022-12-26T04:59:03.246Z,6.47
2022-12-26T05:01:49.943Z,6.42
2022-12-26T05:04:36.590Z,6.41
2022-12-26T05:07:24.465Z,6.35
2022-12-26T05:09:54.504Z,6.40
2022-12-26T05:12:22.411Z,6.44
2022-12-26T05:14:50.078Z,6.34
2022-12-26T05:17:36.660Z,6.28
2022-12-26T05:20:22.454Z,6.26
2022-12-26T05:23:07.567Z,6.27
2022-12-26T05:25:54.511Z,6.24
2022-12-26T05:28:40.634Z,6.25
2022-12-26T05:31:09.129Z,6.28
2022-12-26T05:33:55.829Z,6.28
2022-12-26T05:36:26.902Z,6.26
2022-12-26T05:38:56.093Z,6.35
2022-12-26T05:41:24.359Z,6.32
2022-12-26T05:43:52.413Z,6.33
2022-12-26T05:46:20.510Z,6.31
2022-12-26T05:48:49.650Z,6.29
2022-12-26T05:51:17.439Z,6.33
2022-12-26T05:53:45.184Z,6.33
2022-12-26T05:56:14.510Z,6.31
2022-12-26T05:58:42.916Z,6.32
2022-12-26T06:01:12.985Z,6.36
2022-12-26T06:03:43.256Z,6.32
2022-12-26T06:06:12.453Z,6.32
2022-12-26T06:08:40.869Z,6.23
2022-12-26T06:11:11.821Z,6.21
2022-12-26T06:13:40.648Z,6.19
2022-12-26T06:16:10.737Z,6.15
2022-12-26T06:18:38.560Z,6.05
2022-12-26T06:21:07.323Z,6.05
2022-12-26T06:23:36.916Z,6.00
2022-12-26T06:26:05.299Z,6.02
2022-12-26T06:28:34.675Z,6.04
2022-12-26T06:31:06.327Z,5.99
2022-12-26T06:33:34.076Z,5.99
2022-12-26T06:36:06.249Z,6.02
2022-12-26T06:38:34.075Z,6.04
2022-12-26T06:41:05.210Z,6.12
2022-12-26T06:43:32.903Z,6.23
2022-12-26T06:46:02.299Z,6.32
2022-12-26T06:48:30.700Z,6.35
2022-12-26T06:50:58.715Z,6.34
2022-12-26T06:53:26.480Z,6.26
2022-12-26T06:55:54.169Z,6.44
2022-12-26T06:58:23.241Z,6.56
2022-12-26T07:00:50.902Z,6.60
2022-12-26T07:03:18.546Z,6.64
2022-12-26T07:05:46.191Z,6.71
2022-12-26T07:08:13.832Z,6.86
2022-12-26T07:10:41.515Z,6.89
2022-12-26T07:13:09.156Z,7.02
2022-12-26T07:15:38.230Z,7.06
2022-12-26T07:18:05.900Z,7.03
2022-12-26T07:20:33.561Z,7.04
2022-12-26T07:23:01.187Z,7.04
2022-12-26T07:25:28.830Z,7.01
2022-12-26T07:27:56.511Z,7.03
2022-12-26T07:30:24.718Z,7.03
2022-12-26T07:32:53.781Z,6.97
2022-12-26T07:35:21.525Z,6.96
2022-12-26T07:37:49.249Z,6.93
2022-12-26T07:40:16.949Z,6.92
2022-12-26T07:42:44.614Z,6.91
2022-12-26T07:45:12.285Z,6.99
2022-12-26T07:47:39.986Z,6.99
2022-12-26T07:50:10.154Z,6.97
2022-12-26T07:52:38.190Z,7.02
2022-12-26T07:55:06.536Z,7.01
2022-12-26T07:57:49.889Z,7.03
2022-12-26T08:00:18.989Z,7.07
2022-12-26T08:02:48.928Z,7.08
2022-12-26T08:05:20.795Z,7.10
2022-12-26T08:26:20.489Z,7.71
2022-12-26T08:28:48.243Z,7.80
2022-12-26T08:31:16.317Z,7.86
2022-12-26T08:33:44.043Z,7.92
2022-12-26T08:36:13.905Z,8.02
2022-12-26T08:38:42.001Z,8.08
2022-12-26T08:41:10.293Z,8.23
2022-12-26T08:44:16.493Z,8.42
2022-12-26T08:46:27.282Z,8.61
2022-12-26T08:48:55.001Z,8.79
2022-12-26T08:51:25.498Z,8.97
2022-12-26T08:53:55.411Z,9.13
2022-12-26T08:56:25.250Z,9.27
2022-12-26T08:58:54.771Z,9.43
2022-12-26T09:01:24.152Z,9.56
2022-12-26T09:03:53.949Z,9.62
2022-12-26T09:06:21.773Z,9.71
2022-12-26T09:08:49.785Z,9.78
2022-12-26T09:11:21.262Z,9.92
2022-12-26T09:13:49.870Z,10.02
2022-12-26T09:16:21.364Z,10.11
2022-12-26T09:18:50.365Z,10.23
2022-12-26T09:21:18.090Z,10.41
2022-12-26T09:23:45.904Z,10.57
2022-12-26T09:26:15.693Z,10.76
2022-12-26T09:28:43.962Z,10.82
2022-12-26T09:31:14.043Z,11.01
2022-12-26T09:33:43.696Z,11.14
2022-12-26T09:36:15.179Z,11.32
2022-12-26T09:38:43.965Z,11.38
2022-12-26T09:41:35.618Z,11.47
2022-12-26T09:44:08.713Z,11.73
2022-12-26T09:46:44.563Z,12.05
2022-12-26T09:49:20.166Z,12.29
2022-12-26T09:51:50.651Z,12.25
2022-12-26T09:54:23.122Z,12.40
2022-12-26T09:57:02.251Z,12.64
2022-12-26T09:59:35.649Z,12.80
2022-12-26T10:02:03.524Z,12.98
2022-12-26T10:04:32.744Z,13.16
2022-12-26T10:07:11.618Z,13.42
2022-12-26T10:09:55.964Z,13.62
2022-12-26T10:12:40.055Z,13.65
2022-12-26T10:15:20.223Z,13.55
2022-12-26T10:17:53.726Z,13.80
2022-12-26T10:20:34.298Z,13.83
2022-12-26T10:23:31.112Z,14.34
2022-12-26T10:26:05.603Z,14.18
2022-12-26T10:28:37.743Z,14.37
2022-12-26T10:31:10.985Z,14.41
2022-12-26T10:33:46.646Z,14.43
2022-12-26T10:36:32.850Z,14.48
2022-12-26T10:39:03.385Z,14.61
2022-12-26T10:41:38.962Z,14.90
2022-12-26T10:44:06.593Z,14.88
2022-12-26T10:46:54.390Z,14.61
2022-12-26T10:49:25.257Z,14.91
2022-12-26T10:51:56.499Z,14.97
2022-12-26T10:54:24.908Z,14.63
2022-12-26T10:56:54.323Z,14.30
2022-12-26T10:59:35.248Z,14.06
2022-12-26T11:02:15.246Z,14.04
2022-12-26T11:07:53.442Z,13.94
2022-12-26T11:10:24.408Z,13.88
2022-12-26T11:12:54.272Z,13.76
2022-12-26T11:15:27.909Z,13.73
2022-12-26T11:18:07.643Z,13.79
2022-12-26T11:20:35.701Z,13.87
2022-12-26T11:23:25.627Z,13.77
2022-12-26T11:25:55.063Z,13.81
2022-12-26T11:28:29.228Z,13.72
2022-12-26T11:30:57.588Z,13.65
2022-12-26T11:33:29.194Z,13.64
2022-12-26T11:36:09.624Z,13.62
2022-12-26T11:38:49.084Z,13.48
2022-12-26T11:41:39.612Z,13.54
2022-12-26T11:44:17.538Z,13.49
2022-12-26T11:46:49.466Z,13.42
2022-12-26T11:49:21.426Z,13.37
2022-12-26T11:51:58.523Z,13.33
2022-12-26T11:54:34.852Z,13.28
2022-12-26T11:57:13.836Z,13.36
2022-12-26T11:59:41.681Z,13.35
2022-12-26T12:02:25.501Z,13.39
2022-12-26T12:04:56.592Z,13.55
2022-12-26T12:07:42.723Z,13.39
2022-12-26T12:10:47.880Z,13.37
2022-12-26T12:13:24.501Z,13.42
2022-12-26T12:15:59.110Z,13.49
2022-12-26T12:18:37.391Z,13.47
2022-12-26T12:21:16.999Z,13.38
2022-12-26T12:23:58.219Z,13.23
2022-12-26T12:26:32.395Z,12.99
2022-12-26T12:29:17.313Z,12.55
2022-12-26T12:32:00.037Z,12.28
2022-12-26T12:34:38.935Z,12.14
2022-12-26T12:37:25.455Z,12.01
2022-12-26T12:40:03.635Z,11.46
2022-12-26T12:42:45.877Z,10.86
2022-12-26T12:45:27.089Z,10.53
2022-12-26T12:48:12.017Z,10.34
2022-12-26T12:50:46.316Z,10.22
2022-12-26T12:53:23.803Z,10.13
2022-12-26T12:56:04.464Z,10.08
2022-12-26T12:58:39.464Z,10.01
2022-12-26T13:01:13.822Z,9.94
2022-12-26T13:03:48.893Z,9.87
2022-12-26T13:06:21.949Z,9.79
2022-12-26T13:08:54.212Z,9.72
2022-12-26T13:11:26.578Z,9.64
2022-12-26T13:14:00.245Z,9.59
2022-12-26T13:16:32.774Z,9.59
2022-12-26T13:19:03.780Z,9.55
2022-12-26T13:21:36.528Z,9.49
2022-12-26T13:24:24.082Z,9.46
2022-12-26T13:26:58.310Z,9.39
2022-12-26T13:29:36.994Z,9.34
2022-12-26T13:32:14.256Z,9.27
2022-12-26T13:34:44.392Z,9.28
2022-12-26T13:37:59.811Z,9.22
2022-12-26T13:40:32.006Z,9.23
2022-12-26T13:43:25.443Z,9.21
2022-12-26T13:45:58.190Z,9.16
2022-12-26T13:48:55.335Z,9.12
2022-12-26T13:51:56.701Z,9.06
2022-12-26T13:54:27.236Z,9.06
2022-12-26T13:57:15.876Z,9.02
2022-12-26T13:59:55.353Z,8.97
2022-12-26T14:03:17.838Z,8.97
2022-12-26T14:05:48.534Z,8.89
2022-12-26T14:08:29.563Z,8.85
2022-12-26T14:11:07.885Z,8.79
2022-12-26T14:14:05.956Z,8.73
2022-12-26T14:16:42.851Z,8.70
2022-12-26T14:19:21.093Z,8.68
2022-12-26T14:21:58.490Z,8.67
2022-12-26T14:24:32.875Z,8.63
2022-12-26T14:27:28.441Z,8.62
2022-12-26T14:30:09.847Z,8.58
2022-12-26T14:32:47.990Z,8.59
2022-12-26T14:35:29.523Z,8.53
2022-12-26T14:38:07.602Z,8.51
2022-12-26T14:40:38.405Z,8.51
2022-12-26T14:43:31.618Z,8.49
2022-12-26T14:46:00.024Z,8.43
2022-12-26T14:48:55.510Z,8.40
2022-12-26T14:51:40.114Z,8.39
2022-12-26T14:54:35.575Z,8.33
2022-12-26T14:57:42.163Z,8.30
2022-12-26T15:00:32.521Z,8.31
2022-12-26T15:03:45.755Z,8.25
2022-12-26T15:06:59.343Z,8.30
2022-12-26T15:10:08.526Z,8.27
2022-12-26T15:13:07.498Z,8.24
2022-12-26T15:15:46.851Z,8.23
2022-12-26T15:18:52.114Z,8.24
2022-12-26T15:22:01.166Z,8.19
2022-12-26T15:25:22.067Z,8.16
2022-12-26T15:28:15.705Z,8.16
2022-12-26T15:31:05.874Z,8.10
2022-12-26T15:33:40.543Z,8.10
2022-12-26T15:36:21.357Z,8.04
2022-12-26T15:38:55.775Z,8.06
2022-12-26T15:41:36.610Z,7.99
2022-12-26T15:44:21.125Z,7.96
2022-12-26T15:46:58.262Z,7.91
2022-12-26T15:49:46.330Z,7.89
2022-12-26T15:52:25.934Z,7.90
2022-12-26T15:55:26.549Z,7.87
2022-12-26T15:58:02.056Z,7.82
2022-12-26T16:00:31.967Z,7.78
2022-12-26T16:03:20.713Z,7.80
2022-12-26T16:06:01.105Z,7.73
2022-12-26T16:08:59.441Z,7.72
2022-12-26T16:11:32.037Z,7.69
2022-12-26T16:14:03.889Z,7.66
2022-12-26T16:16:34.729Z,7.66
2022-12-26T16:19:20.693Z,7.63
2022-12-26T16:22:07.742Z,7.63
2022-12-26T16:24:37.894Z,7.61
2022-12-26T16:27:08.747Z,7.60
2022-12-26T16:29:47.435Z,7.57
2022-12-26T16:32:20.118Z,7.55
2022-12-26T16:34:49.254Z,7.52
2022-12-26T16:37:20.937Z,7.52
2022-12-26T16:40:18.083Z,7.51
2022-12-26T16:42:55.819Z,7.49
2022-12-26T16:45:27.070Z,7.52
2022-12-26T16:47:56.783Z,7.51
2022-12-26T16:50:26.515Z,7.50
2022-12-26T16:53:11.012Z,7.51
2022-12-26T16:55:45.500Z,7.51
2022-12-26T16:58:21.440Z,7.52
2022-12-26T17:01:04.546Z,7.48
2022-12-26T17:03:40.377Z,7.49
2022-12-26T17:06:12.468Z,7.42
2022-12-26T17:08:46.620Z,7.40
2022-12-26T17:11:15.359Z,7.37
2022-12-26T17:13:51.613Z,7.32
2022-12-26T17:16:24.719Z,7.33
2022-12-26T17:18:54.547Z,7.31
2022-12-26T17:21:30.717Z,7.33
2022-12-26T17:24:22.064Z,7.31
2022-12-26T17:26:54.829Z,7.36
2022-12-26T17:29:48.742Z,7.37
2022-12-26T17:32:26.705Z,7.36
2022-12-26T17:34:55.062Z,7.35
2022-12-26T17:37:26.181Z,7.34
2022-12-26T17:40:02.570Z,7.38
2022-12-26T17:42:32.211Z,7.37
2022-12-26T17:45:00.124Z,7.41
2022-12-26T17:47:30.371Z,7.40
2022-12-26T17:49:58.473Z,7.37
2022-12-26T17:52:29.333Z,7.40
2022-12-26T17:54:58.635Z,7.42
2022-12-26T17:57:29.471Z,7.41
2022-12-26T17:59:58.146Z,7.41
2022-12-26T18:02:26.325Z,7.46
2022-12-26T18:04:55.981Z,7.42
2022-12-26T18:07:30.840Z,7.46
2022-12-26T18:09:59.698Z,7.48
2022-12-26T18:12:27.621Z,7.47
2022-12-26T18:15:01.320Z,7.43
2022-12-26T18:17:32.741Z,7.47
2022-12-26T18:20:02.344Z,7.49
2022-12-26T18:22:30.257Z,7.50
2022-12-26T18:24:58.280Z,7.55
2022-12-26T18:27:30.462Z,7.57
2022-12-26T18:29:58.298Z,7.55
2022-12-26T18:32:28.645Z,7.54
2022-12-26T18:34:57.098Z,7.51
2022-12-26T18:37:28.886Z,7.56
2022-12-26T18:39:56.744Z,7.54
2022-12-26T18:42:25.297Z,7.51
2022-12-26T18:44:53.386Z,7.50
2022-12-26T18:47:22.135Z,7.51
2022-12-26T18:49:50.416Z,7.50
2022-12-26T18:52:18.404Z,7.48
2022-12-26T18:54:47.619Z,7.53
2022-12-26T18:57:19.494Z,7.58
2022-12-26T18:59:48.540Z,7.51
2022-12-26T19:02:18.436Z,7.54
2022-12-26T19:04:48.321Z,7.52
2022-12-26T19:07:18.091Z,7.56
2022-12-26T19:09:48.590Z,7.50
2022-12-26T19:12:17.420Z,7.51
2022-12-26T19:14:46.104Z,7.53
2022-12-26T19:17:14.581Z,7.44
2022-12-26T19:19:42.444Z,7.40
2022-12-26T19:22:11.028Z,7.49
2022-12-26T19:24:39.135Z,7.50
2022-12-26T19:27:08.342Z,7.54
2022-12-26T19:29:36.284Z,7.44
2022-12-26T19:32:04.136Z,7.44
2022-12-26T19:34:31.886Z,7.41
2022-12-26T19:36:59.727Z,7.36
2022-12-26T19:39:27.621Z,7.31
2022-12-26T19:41:55.368Z,7.44
2022-12-26T19:44:24.534Z,7.41
2022-12-26T19:47:10.917Z,7.43
2022-12-26T19:49:40.141Z,7.43
2022-12-26T19:52:08.105Z,7.41
2022-12-26T19:54:36.192Z,7.39
2022-12-26T19:57:04.117Z,7.37
2022-12-26T19:59:33.428Z,7.41
2022-12-26T20:02:01.445Z,7.42
2022-12-26T20:04:29.450Z,7.39
2022-12-26T20:06:59.823Z,7.46
2022-12-26T20:09:28.031Z,7.42
2022-12-26T20:11:56.476Z,7.37
2022-12-26T20:14:26.706Z,7.49
2022-12-26T20:17:07.105Z,7.53
2022-12-26T20:19:36.194Z,7.65
2022-12-26T20:22:04.838Z,7.71
2022-12-26T20:24:33.162Z,7.77
2022-12-26T20:27:00.988Z,7.76
2022-12-26T20:29:28.876Z,7.80
2022-12-26T20:31:59.072Z,7.88
2022-12-26T20:34:27.559Z,7.93
2022-12-26T20:36:55.668Z,7.98
2022-12-26T20:39:23.975Z,8.03
2022-12-26T20:41:51.796Z,8.11
2022-12-26T20:44:19.851Z,8.14
2022-12-26T20:46:48.181Z,8.14
2022-12-26T20:49:17.906Z,8.15
2022-12-26T20:51:46.577Z,8.20
2022-12-26T20:54:15.650Z,8.19
2022-12-26T20:56:44.362Z,8.18
2022-12-26T20:59:12.654Z,8.24
2022-12-26T21:01:41.249Z,8.27
2022-12-26T21:04:12.081Z,8.27
2022-12-26T21:06:41.465Z,8.27
2022-12-26T21:09:09.367Z,8.23
2022-12-26T21:11:39.074Z,8.18
2022-12-26T21:14:09.801Z,8.02
2022-12-26T21:16:40.221Z,7.88
2022-12-26T21:19:14.730Z,7.77
2022-12-26T21:21:46.701Z,7.62
2022-12-26T21:24:18.083Z,7.49
2022-12-26T21:26:46.579Z,7.32
2022-12-26T21:29:17.508Z,6.97
2022-12-26T21:31:46.478Z,6.55
2022-12-26T21:34:16.626Z,6.22
2022-12-26T21:37:07.203Z,5.95
2022-12-26T21:39:36.766Z,5.83
2022-12-26T21:42:07.179Z,5.80
2022-12-26T21:44:36.783Z,5.78
2022-12-26T21:47:05.274Z,5.79
2022-12-26T21:49:33.032Z,5.77
2022-12-26T21:52:02.495Z,5.79
2022-12-26T21:54:49.275Z,5.79
2022-12-26T21:57:17.978Z,5.80
2022-12-26T22:00:02.580Z,5.78
2022-12-26T22:02:50.039Z,5.85
2022-12-26T22:05:19.701Z,5.85
2022-12-26T22:07:52.946Z,5.85
2022-12-26T22:10:38.656Z,5.89
2022-12-26T22:13:06.955Z,5.96
2022-12-26T22:15:52.353Z,5.97
2022-12-26T22:18:20.493Z,5.98
2022-12-26T22:20:48.474Z,6.06
2022-12-26T22:23:17.709Z,6.09
2022-12-26T22:25:52.967Z,6.16
2022-12-26T22:28:23.588Z,6.22
2022-12-26T22:30:52.041Z,6.29
2022-12-26T22:33:20.283Z,6.29
2022-12-26T22:35:49.284Z,6.30
2022-12-26T22:38:18.469Z,6.29
2022-12-26T22:40:54.440Z,6.33
2022-12-26T22:43:22.208Z,6.36
2022-12-26T22:45:50.123Z,6.34
2022-12-26T22:48:18.158Z,6.35
2022-12-26T22:50:47.416Z,6.38
2022-12-26T22:53:15.683Z,6.38
2022-12-26T22:55:49.604Z,6.34
2022-12-26T23:02:44.714Z,6.32
2022-12-26T23:05:13.596Z,6.31
2022-12-26T23:07:42.064Z,6.28
2022-12-26T23:10:17.540Z,6.38
2022-12-26T23:12:45.594Z,6.40
2022-12-26T23:15:16.176Z,6.41
2022-12-26T23:18:07.635Z,6.39
2022-12-26T23:20:55.844Z,6.39
2022-12-26T23:23:24.366Z,6.45
2022-12-26T23:25:52.439Z,6.42
2022-12-26T23:28:37.814Z,6.43
2022-12-26T23:31:05.763Z,6.48
2022-12-26T23:33:34.971Z,6.43
2022-12-26T23:36:02.857Z,6.36
2022-12-26T23:38:30.708Z,6.29
2022-12-26T23:40:58.528Z,6.30
2022-12-26T23:43:26.413Z,6.26
2022-12-26T23:45:54.220Z,6.27
2022-12-26T23:48:21.994Z,6.29
2022-12-26T23:50:51.185Z,6.26
2022-12-26T23:53:19.042Z,6.23
2022-12-26T23:55:46.745Z,6.28
2022-12-26T23:58:14.507Z,6.26
